createdAt,value
2017-01-13T00:00:09.438Z,0
2017-01-13T00:00:55.415Z,0
2017-01-13T00:01:36.454Z,0
2017-01-13T00:02:19.310Z,0
2017-01-13T00:03:04.304Z,0
2017-01-13T00:03:47.283Z,0
2017-01-13T00:04:32.293Z,0
2017-01-13T00:05:15.391Z,0
2017-01-13T00:05:57.670Z,0
2017-01-13T00:06:42.307Z,0
2017-01-13T00:07:49.378Z,0
2017-01-13T00:08:34.501Z,0
2017-01-13T00:09:28.590Z,0
2017-01-13T00:10:13.295Z,0
2017-01-13T00:10:54.637Z,0
2017-01-13T00:11:38.795Z,0
2017-01-13T00:12:23.784Z,0
2017-01-13T00:13:05.973Z,0
2017-01-13T00:13:48.974Z,0
2017-01-13T00:14:33.794Z,0
2017-01-13T00:15:14.813Z,0
2017-01-13T00:15:57.782Z,0
2017-01-13T00:16:39.185Z,0
2017-01-13T00:17:23.812Z,0
2017-01-13T00:18:11.882Z,0
2017-01-13T00:18:54.894Z,0
2017-01-13T00:19:37.294Z,0
2017-01-13T00:20:19.285Z,0
2017-01-13T00:21:05.307Z,0
2017-01-13T00:24:54.750Z,0
2017-01-13T00:27:23.532Z,0
2017-01-13T00:28:05.094Z,0
2017-01-13T00:28:46.194Z,0
2017-01-13T00:29:28.542Z,0
2017-01-13T00:30:11.508Z,0
2017-01-13T00:30:52.623Z,0
2017-01-13T00:31:33.099Z,0
2017-01-13T00:32:16.091Z,0
2017-01-13T00:32:58.510Z,0
2017-01-13T00:33:40.498Z,0
2017-01-13T00:34:21.801Z,0
2017-01-13T00:35:03.180Z,0
2017-01-13T00:35:44.495Z,0
2017-01-13T00:36:28.670Z,0
2017-01-13T00:37:10.601Z,0
2017-01-13T00:37:51.898Z,0
2017-01-13T00:38:35.977Z,0
2017-01-13T00:39:16.473Z,0
2017-01-13T00:40:00.606Z,0
2017-01-13T00:40:49.516Z,0
2017-01-13T00:41:31.865Z,0
2017-01-13T00:42:12.392Z,0
2017-01-13T00:42:55.002Z,0
2017-01-13T00:43:41.019Z,0
2017-01-13T00:44:25.992Z,0
2017-01-13T00:45:07.993Z,0
2017-01-13T00:45:51.101Z,0
2017-01-13T00:46:33.181Z,0
2017-01-13T00:47:16.100Z,0
2017-01-13T00:48:01.006Z,0
2017-01-13T00:48:45.036Z,0
2017-01-13T00:49:28.130Z,0
2017-01-13T00:50:15.037Z,0
2017-01-13T00:50:56.069Z,0
2017-01-13T00:51:42.093Z,0
2017-01-13T00:52:23.170Z,0
2017-01-13T00:53:04.636Z,0
2017-01-13T00:53:48.504Z,0
2017-01-13T00:54:42.516Z,0
2017-01-13T00:55:23.522Z,0
2017-01-13T00:56:06.566Z,0
2017-01-13T00:56:49.171Z,0
2017-01-13T00:57:32.115Z,0
2017-01-13T00:58:17.017Z,0
2017-01-13T00:59:05.010Z,0
2017-01-13T00:59:47.070Z,0
2017-01-13T01:00:29.991Z,0
2017-01-13T01:01:10.540Z,0
2017-01-13T01:01:51.505Z,0
2017-01-13T01:02:33.493Z,0
2017-01-13T01:03:16.696Z,0
2017-01-13T01:04:02.168Z,0
2017-01-13T01:04:43.575Z,0
2017-01-13T01:05:27.492Z,0
2017-01-13T01:06:09.814Z,0
2017-01-13T01:06:51.168Z,0
2017-01-13T01:07:33.128Z,0
2017-01-13T01:08:17.009Z,0
2017-01-13T01:09:02.995Z,0
2017-01-13T01:09:45.073Z,0
2017-01-13T01:10:26.308Z,0
2017-01-13T01:11:06.787Z,0
2017-01-13T01:11:47.265Z,0
2017-01-13T01:12:31.000Z,0
2017-01-13T01:13:17.047Z,0
2017-01-13T01:14:01.011Z,0
2017-01-13T01:14:41.457Z,0
2017-01-13T01:15:22.504Z,0
2017-01-13T01:16:05.515Z,0
2017-01-13T01:16:46.691Z,0
2017-01-13T01:17:28.086Z,0
2017-01-13T01:18:21.115Z,0
2017-01-13T01:19:01.601Z,0
2017-01-13T01:19:45.490Z,0
2017-01-13T01:20:28.503Z,0
2017-01-13T01:21:17.500Z,0
2017-01-13T01:22:00.673Z,0
2017-01-13T01:22:41.162Z,0
2017-01-13T01:23:22.195Z,0
2017-01-13T01:24:04.027Z,0
2017-01-13T01:24:48.994Z,0
2017-01-13T01:25:32.004Z,0
2017-01-13T01:26:16.106Z,0
2017-01-13T01:27:04.013Z,0
2017-01-13T01:27:48.205Z,0
2017-01-13T01:28:44.099Z,0
2017-01-13T01:29:28.100Z,0
2017-01-13T01:30:14.003Z,0
2017-01-13T01:30:56.999Z,0
2017-01-13T01:31:38.192Z,0
2017-01-13T01:32:22.188Z,0
2017-01-13T01:33:15.001Z,0
2017-01-13T01:33:56.318Z,0
2017-01-13T01:34:39.167Z,0
2017-01-13T01:35:20.279Z,0
2017-01-13T01:36:03.103Z,0
2017-01-13T01:36:43.617Z,0
2017-01-13T01:37:24.079Z,0
2017-01-13T01:38:05.101Z,0
2017-01-13T01:38:46.161Z,0
2017-01-13T01:39:27.207Z,0
2017-01-13T01:40:08.482Z,0
2017-01-13T01:40:50.087Z,0
2017-01-13T01:41:30.591Z,0
2017-01-13T01:42:12.497Z,0
2017-01-13T01:42:57.583Z,0
2017-01-13T01:43:44.619Z,0
2017-01-13T01:44:27.502Z,0
2017-01-13T01:45:08.687Z,0
2017-01-13T01:45:50.107Z,0
2017-01-13T01:46:35.042Z,0
2017-01-13T01:47:16.409Z,0
2017-01-13T01:48:02.531Z,0
2017-01-13T01:48:44.616Z,0
2017-01-13T01:49:27.704Z,0
2017-01-13T01:50:09.610Z,0
2017-01-13T01:50:50.796Z,0
2017-01-13T01:51:33.524Z,0
2017-01-13T01:52:18.504Z,0
2017-01-13T01:52:59.824Z,0
2017-01-13T01:53:40.842Z,0
2017-01-13T01:54:23.682Z,0
2017-01-13T01:55:05.012Z,0
2017-01-13T01:55:46.175Z,0
2017-01-13T01:56:29.151Z,0
2017-01-13T01:57:15.176Z,0
2017-01-13T01:57:57.085Z,0
2017-01-13T01:58:37.560Z,0
2017-01-13T01:59:20.521Z,0
2017-01-13T02:00:01.673Z,0
2017-01-13T02:00:46.496Z,0
2017-01-13T02:01:29.507Z,0
2017-01-13T02:02:14.588Z,0
2017-01-13T02:02:58.660Z,0
2017-01-13T02:03:40.023Z,0
2017-01-13T02:04:21.395Z,0
2017-01-13T02:05:01.838Z,0
2017-01-13T02:05:44.081Z,0
2017-01-13T02:06:27.001Z,0
2017-01-13T02:07:07.485Z,0
2017-01-13T02:07:48.789Z,0
2017-01-13T02:08:30.789Z,0
2017-01-13T02:09:12.814Z,0
2017-01-13T02:09:54.806Z,0
2017-01-13T02:10:36.171Z,0
2017-01-13T02:11:17.321Z,0
2017-01-13T02:11:57.760Z,0
2017-01-13T02:12:43.491Z,0
2017-01-13T02:13:23.986Z,0
2017-01-13T02:14:07.204Z,0
2017-01-13T02:14:47.686Z,0
2017-01-13T02:15:28.825Z,0
2017-01-13T02:16:10.606Z,0
2017-01-13T02:16:52.497Z,0
2017-01-13T02:17:36.494Z,0
2017-01-13T02:18:24.589Z,0
2017-01-13T02:19:05.692Z,0
2017-01-13T02:19:46.886Z,0
2017-01-13T02:20:27.990Z,0
2017-01-13T02:21:11.010Z,0
2017-01-13T02:21:51.504Z,0
2017-01-13T02:22:36.503Z,0
2017-01-13T02:23:17.589Z,0
2017-01-13T02:23:59.923Z,0
2017-01-13T02:24:40.379Z,0
2017-01-13T02:25:22.583Z,0
2017-01-13T02:26:03.587Z,0
2017-01-13T02:26:45.663Z,0
2017-01-13T02:27:28.519Z,0
2017-01-13T02:28:12.593Z,0
2017-01-13T02:28:54.649Z,0
2017-01-13T02:29:37.495Z,0
2017-01-13T02:30:17.981Z,0
2017-01-13T02:30:58.998Z,0
2017-01-13T02:31:40.152Z,0
2017-01-13T02:32:20.666Z,0
2017-01-13T02:33:01.140Z,0
2017-01-13T02:33:41.654Z,0
2017-01-13T02:34:23.993Z,0
2017-01-13T02:35:06.308Z,0
2017-01-13T02:35:48.217Z,0
2017-01-13T02:36:30.304Z,0
2017-01-13T02:37:13.315Z,0
2017-01-13T02:37:53.777Z,0
2017-01-13T02:38:37.499Z,0
2017-01-13T02:39:19.032Z,0
2017-01-13T02:40:02.019Z,0
2017-01-13T02:40:42.482Z,0
2017-01-13T02:41:23.924Z,0
2017-01-13T02:42:08.204Z,0
2017-01-13T02:42:50.184Z,0
2017-01-13T02:43:32.096Z,0
2017-01-13T02:44:12.543Z,0
2017-01-13T02:44:53.683Z,0
2017-01-13T02:45:34.154Z,0
2017-01-13T02:46:16.100Z,0
2017-01-13T02:46:59.186Z,0
2017-01-13T02:47:40.320Z,0
2017-01-13T02:48:23.509Z,0
2017-01-13T02:49:04.906Z,0
2017-01-13T02:49:45.414Z,0
2017-01-13T02:50:26.956Z,0
2017-01-13T02:51:09.622Z,0
2017-01-13T02:51:51.018Z,0
2017-01-13T02:52:33.000Z,0
2017-01-13T02:53:14.524Z,0
2017-01-13T02:53:55.612Z,0
2017-01-13T02:54:39.482Z,0
2017-01-13T02:55:21.798Z,0
2017-01-13T02:56:04.873Z,0
2017-01-13T02:56:49.499Z,0
2017-01-13T02:57:32.491Z,0
2017-01-13T02:58:13.517Z,0
2017-01-13T02:58:55.590Z,0
2017-01-13T02:59:36.098Z,0
2017-01-13T03:00:18.021Z,0
2017-01-13T03:01:00.011Z,0
2017-01-13T03:01:44.012Z,0
2017-01-13T03:02:25.090Z,0
2017-01-13T03:03:06.086Z,0
2017-01-13T03:03:48.004Z,0
2017-01-13T03:04:31.073Z,0
2017-01-13T03:05:16.076Z,0
2017-01-13T03:05:59.066Z,0
2017-01-13T03:06:42.090Z,0
2017-01-13T03:07:26.012Z,0
2017-01-13T03:08:07.407Z,0
2017-01-13T03:08:48.566Z,0
2017-01-13T03:09:29.881Z,0
2017-01-13T03:10:13.506Z,0
2017-01-13T03:10:54.676Z,0
2017-01-13T03:11:36.500Z,0
2017-01-13T03:12:18.589Z,0
2017-01-13T03:13:01.009Z,0
2017-01-13T03:13:41.506Z,0
2017-01-13T03:14:23.495Z,0
2017-01-13T03:15:04.804Z,0
2017-01-13T03:15:46.668Z,0
2017-01-13T03:16:27.902Z,0
2017-01-13T03:17:08.350Z,0
2017-01-13T03:17:50.498Z,0
2017-01-13T03:18:32.620Z,0
2017-01-13T03:19:13.796Z,0
2017-01-13T03:19:54.292Z,0
2017-01-13T03:20:36.000Z,0
2017-01-13T03:21:19.388Z,0
2017-01-13T03:22:01.528Z,0
2017-01-13T03:22:44.504Z,0
2017-01-13T03:23:25.797Z,0
2017-01-13T03:24:06.818Z,0
2017-01-13T03:24:49.086Z,0
2017-01-13T03:25:29.569Z,0
2017-01-13T03:26:23.496Z,0
2017-01-13T03:27:05.583Z,0
2017-01-13T03:27:47.596Z,0
2017-01-13T03:28:29.795Z,0
2017-01-13T03:29:11.060Z,0
2017-01-13T03:29:53.182Z,0
2017-01-13T03:30:33.709Z,0
2017-01-13T03:31:14.180Z,0
2017-01-13T03:31:54.661Z,0
2017-01-13T03:32:35.153Z,0
2017-01-13T03:33:19.016Z,0
2017-01-13T03:33:59.449Z,0
2017-01-13T03:34:40.879Z,0
2017-01-13T03:35:21.376Z,0
2017-01-13T03:36:05.524Z,0
2017-01-13T03:36:46.794Z,0
2017-01-13T03:37:27.265Z,0
2017-01-13T03:38:08.591Z,0
2017-01-13T03:38:49.184Z,0
2017-01-13T03:39:29.677Z,0
2017-01-13T03:40:10.791Z,0
2017-01-13T03:40:52.594Z,0
2017-01-13T03:41:33.056Z,0
2017-01-13T03:42:14.517Z,0
2017-01-13T03:42:54.962Z,0
2017-01-13T03:43:39.097Z,0
2017-01-13T03:44:20.434Z,0
2017-01-13T03:45:01.568Z,0
2017-01-13T03:45:42.048Z,0
2017-01-13T03:46:22.533Z,0
2017-01-13T03:47:03.008Z,0
2017-01-13T03:47:43.473Z,0
2017-01-13T03:48:23.964Z,0
2017-01-13T03:49:04.439Z,0
2017-01-13T03:49:44.898Z,0
2017-01-13T03:50:26.009Z,0
2017-01-13T03:51:07.092Z,0
2017-01-13T03:51:47.557Z,0
2017-01-13T03:52:28.062Z,0
2017-01-13T03:53:10.084Z,0
2017-01-13T03:53:51.099Z,0
2017-01-13T03:54:33.310Z,0
2017-01-13T03:55:13.781Z,0
2017-01-13T03:55:55.109Z,0
2017-01-13T03:56:35.586Z,0
2017-01-13T03:57:16.060Z,0
2017-01-13T03:57:57.501Z,0
2017-01-13T03:58:37.981Z,0
2017-01-13T03:59:19.995Z,0
2017-01-13T04:00:02.172Z,0
2017-01-13T04:00:42.649Z,0
2017-01-13T04:01:24.089Z,0
2017-01-13T04:02:04.575Z,0
2017-01-13T04:02:45.037Z,0
2017-01-13T04:03:25.513Z,0
2017-01-13T04:04:06.586Z,0
2017-01-13T04:04:47.086Z,0
2017-01-13T04:05:32.159Z,0
2017-01-13T04:06:12.639Z,0
2017-01-13T04:06:53.139Z,0
2017-01-13T04:07:33.612Z,0
2017-01-13T04:08:15.507Z,0
2017-01-13T04:08:56.526Z,0
2017-01-13T04:09:37.782Z,0
2017-01-13T04:10:18.235Z,0
2017-01-13T04:10:59.306Z,0
2017-01-13T04:11:39.759Z,0
2017-01-13T04:12:21.796Z,0
2017-01-13T04:13:02.253Z,0
2017-01-13T04:13:42.719Z,0
2017-01-13T04:14:23.212Z,0
2017-01-13T04:15:04.411Z,0
2017-01-13T04:15:46.597Z,0
2017-01-13T04:16:27.920Z,0
2017-01-13T04:17:09.170Z,0
2017-01-13T04:17:49.642Z,0
2017-01-13T04:18:31.670Z,0
2017-01-13T04:19:12.218Z,0
2017-01-13T04:19:52.684Z,0
2017-01-13T04:20:35.579Z,0
2017-01-13T04:21:17.500Z,0
2017-01-13T04:21:58.596Z,0
2017-01-13T04:22:39.893Z,0
2017-01-13T04:23:20.383Z,0
2017-01-13T04:24:00.915Z,0
2017-01-13T04:24:41.997Z,0
2017-01-13T04:25:22.459Z,0
2017-01-13T04:26:02.951Z,0
2017-01-13T04:26:44.405Z,0
2017-01-13T04:27:24.906Z,0
2017-01-13T04:28:07.082Z,0
2017-01-13T04:28:49.194Z,0
2017-01-13T04:29:32.002Z,0
2017-01-13T04:30:12.481Z,0
2017-01-13T04:30:52.995Z,0
2017-01-13T04:31:34.183Z,0
2017-01-13T04:32:14.682Z,0
2017-01-13T04:32:55.179Z,0
2017-01-13T04:33:35.671Z,0
2017-01-13T04:34:17.508Z,0
2017-01-13T04:34:58.996Z,0
2017-01-13T04:35:39.468Z,0
2017-01-13T04:36:19.950Z,0
2017-01-13T04:37:01.274Z,0
2017-01-13T04:37:42.672Z,0
2017-01-13T04:38:23.997Z,0
2017-01-13T04:39:06.165Z,0
2017-01-13T04:39:46.657Z,0
2017-01-13T04:40:27.183Z,0
2017-01-13T04:41:08.600Z,0
2017-01-13T04:41:49.076Z,0
2017-01-13T04:42:29.569Z,0
2017-01-13T04:43:12.497Z,0
2017-01-13T04:43:55.601Z,0
2017-01-13T04:44:39.628Z,0
2017-01-13T04:45:20.116Z,0
2017-01-13T04:46:01.500Z,0
2017-01-13T04:46:41.996Z,0
2017-01-13T04:47:22.504Z,0
2017-01-13T04:48:05.675Z,0
2017-01-13T04:48:46.137Z,0
2017-01-13T04:49:28.003Z,0
2017-01-13T04:50:10.346Z,0
2017-01-13T04:50:50.815Z,0
2017-01-13T04:51:31.260Z,0
2017-01-13T04:52:11.763Z,0
2017-01-13T04:52:52.794Z,0
2017-01-13T04:53:33.270Z,0
2017-01-13T04:54:13.727Z,0
2017-01-13T04:54:54.216Z,0
2017-01-13T04:55:34.705Z,0
2017-01-13T04:56:16.075Z,0
2017-01-13T04:56:56.550Z,0
2017-01-13T04:57:38.003Z,0
2017-01-13T04:58:19.408Z,0
2017-01-13T04:58:59.887Z,0
2017-01-13T04:59:40.391Z,0
2017-01-13T05:00:20.838Z,0
2017-01-13T05:01:02.074Z,0
2017-01-13T05:01:42.592Z,0
2017-01-13T05:02:23.073Z,0
2017-01-13T05:03:04.108Z,0
2017-01-13T05:03:44.584Z,0
2017-01-13T05:04:25.049Z,0
2017-01-13T05:05:05.555Z,0
2017-01-13T05:05:47.009Z,0
2017-01-13T05:06:27.484Z,0
2017-01-13T05:07:08.487Z,0
2017-01-13T05:07:49.502Z,0
2017-01-13T05:08:29.966Z,0
2017-01-13T05:09:10.466Z,0
2017-01-13T05:09:50.945Z,0
2017-01-13T05:10:31.421Z,0
2017-01-13T05:11:11.950Z,0
2017-01-13T05:11:52.579Z,0
2017-01-13T05:12:33.210Z,0
2017-01-13T05:13:13.765Z,0
2017-01-13T05:13:54.455Z,0
2017-01-13T05:14:35.273Z,0
2017-01-13T05:15:16.089Z,0
2017-01-13T05:15:56.813Z,0
2017-01-13T05:16:37.317Z,0
2017-01-13T05:17:17.806Z,0
2017-01-13T05:17:58.293Z,0
2017-01-13T05:18:38.782Z,0
2017-01-13T05:19:19.262Z,0
2017-01-13T05:19:59.730Z,0
2017-01-13T05:20:40.206Z,0
2017-01-13T05:21:20.718Z,0
2017-01-13T05:22:01.177Z,0
2017-01-13T05:22:41.738Z,0
2017-01-13T05:23:22.272Z,0
2017-01-13T05:24:02.729Z,0
2017-01-13T05:24:43.211Z,0
2017-01-13T05:25:23.686Z,0
2017-01-13T05:26:04.171Z,0
2017-01-13T05:26:44.651Z,0
2017-01-13T05:27:25.127Z,0
2017-01-13T05:28:05.621Z,0
2017-01-13T05:28:46.105Z,0
2017-01-13T05:29:26.595Z,0
2017-01-13T05:30:07.063Z,0
2017-01-13T05:30:47.567Z,0
2017-01-13T05:31:28.040Z,0
2017-01-13T05:32:08.519Z,0
2017-01-13T05:32:49.019Z,0
2017-01-13T05:33:29.506Z,0
2017-01-13T05:34:09.961Z,0
2017-01-13T05:34:50.452Z,0
2017-01-13T05:35:30.969Z,0
2017-01-13T05:36:11.420Z,0
2017-01-13T05:36:51.941Z,0
2017-01-13T05:37:32.430Z,0
2017-01-13T05:38:12.926Z,0
2017-01-13T05:38:53.373Z,0
2017-01-13T05:39:33.847Z,0
2017-01-13T05:40:14.320Z,0
2017-01-13T05:40:54.837Z,0
2017-01-13T05:41:35.312Z,0
2017-01-13T05:42:15.786Z,0
2017-01-13T05:42:56.280Z,0
2017-01-13T05:43:36.749Z,0
2017-01-13T05:44:17.230Z,0
2017-01-13T05:44:57.742Z,0
2017-01-13T05:45:38.201Z,0
2017-01-13T05:46:18.710Z,0
2017-01-13T05:46:59.197Z,0
2017-01-13T05:47:39.699Z,0
2017-01-13T05:48:20.197Z,0
2017-01-13T05:49:00.662Z,0
2017-01-13T05:49:41.185Z,0
2017-01-13T05:50:21.678Z,0
2017-01-13T05:51:02.165Z,0
2017-01-13T05:51:42.643Z,0
2017-01-13T05:52:23.141Z,0
2017-01-13T05:53:03.613Z,0
2017-01-13T05:53:44.099Z,0
2017-01-13T05:54:24.601Z,0
2017-01-13T05:55:05.083Z,0
2017-01-13T05:55:45.560Z,0
2017-01-13T05:56:26.051Z,0
2017-01-13T05:57:06.522Z,0
2017-01-13T05:57:47.000Z,0
2017-01-13T05:58:27.502Z,0
2017-01-13T05:59:07.962Z,0
2017-01-13T05:59:48.446Z,0
2017-01-13T06:00:29.107Z,0
2017-01-13T06:01:09.402Z,0
2017-01-13T06:01:49.890Z,0
2017-01-13T06:02:30.401Z,0
2017-01-13T06:03:10.932Z,0
2017-01-13T06:03:51.380Z,0
2017-01-13T06:04:31.885Z,0
2017-01-13T06:05:12.331Z,0
2017-01-13T06:05:52.826Z,0
2017-01-13T06:06:33.281Z,0
2017-01-13T06:07:13.754Z,0
2017-01-13T06:07:54.242Z,0
2017-01-13T06:08:34.735Z,0
2017-01-13T06:09:15.211Z,0
2017-01-13T06:09:55.664Z,0
2017-01-13T06:10:36.132Z,0
2017-01-13T06:11:16.632Z,0
2017-01-13T06:11:57.105Z,0
2017-01-13T06:12:37.588Z,0
2017-01-13T06:13:18.099Z,0
2017-01-13T06:13:58.604Z,0
2017-01-13T06:14:39.071Z,0
2017-01-13T06:15:19.554Z,0
2017-01-13T06:16:00.029Z,0
2017-01-13T06:16:40.512Z,0
2017-01-13T06:17:21.041Z,0
2017-01-13T06:18:01.604Z,0
2017-01-13T06:18:42.420Z,0
2017-01-13T06:19:23.154Z,0
2017-01-13T06:20:03.884Z,0
2017-01-13T06:20:44.596Z,0
2017-01-13T06:21:25.080Z,0
2017-01-13T06:22:05.581Z,0
2017-01-13T06:22:46.065Z,0
2017-01-13T06:23:26.530Z,0
2017-01-13T06:24:07.033Z,0
2017-01-13T06:24:47.518Z,0
2017-01-13T06:25:27.991Z,0
2017-01-13T06:26:08.466Z,0
2017-01-13T06:26:48.937Z,0
2017-01-13T06:27:29.438Z,0
2017-01-13T06:28:09.915Z,0
2017-01-13T06:28:50.381Z,0
2017-01-13T06:29:30.884Z,0
2017-01-13T06:30:11.342Z,0
2017-01-13T06:30:51.819Z,0
2017-01-13T06:31:32.313Z,0
2017-01-13T06:32:12.777Z,0
2017-01-13T06:32:53.272Z,0
2017-01-13T06:33:33.734Z,0
2017-01-13T06:34:14.232Z,0
2017-01-13T06:34:54.743Z,0
2017-01-13T06:35:35.241Z,0
2017-01-13T06:36:15.746Z,0
2017-01-13T06:36:56.237Z,0
2017-01-13T06:37:36.738Z,0
2017-01-13T06:38:17.213Z,0
2017-01-13T06:38:57.677Z,0
2017-01-13T06:39:38.150Z,0
2017-01-13T06:40:18.620Z,0
2017-01-13T06:40:59.132Z,0
2017-01-13T06:41:39.606Z,0
2017-01-13T06:42:20.082Z,0
2017-01-13T06:43:00.576Z,0
2017-01-13T06:43:41.041Z,0
2017-01-13T06:44:21.550Z,0
2017-01-13T06:45:03.381Z,0
2017-01-13T06:45:43.738Z,0
2017-01-13T06:46:24.243Z,0
2017-01-13T06:47:04.734Z,0
2017-01-13T06:47:45.211Z,0
2017-01-13T06:48:25.715Z,0
2017-01-13T06:49:06.222Z,0
2017-01-13T06:49:46.717Z,0
2017-01-13T06:50:27.176Z,0
2017-01-13T06:51:07.643Z,0
2017-01-13T06:51:48.090Z,0
2017-01-13T06:52:28.557Z,0
2017-01-13T06:53:09.021Z,0
2017-01-13T06:53:49.495Z,0
2017-01-13T06:54:30.039Z,0
2017-01-13T06:55:10.492Z,0
2017-01-13T06:55:51.053Z,0
2017-01-13T06:56:31.573Z,0
2017-01-13T06:57:11.974Z,0
2017-01-13T06:57:52.480Z,0
2017-01-13T06:58:32.940Z,0
2017-01-13T06:59:13.427Z,0
2017-01-13T06:59:53.955Z,0
2017-01-13T07:00:34.530Z,0
2017-01-13T07:01:15.036Z,0
2017-01-13T07:01:55.491Z,0
2017-01-13T07:02:35.996Z,0
2017-01-13T07:03:16.428Z,0
2017-01-13T07:03:56.998Z,0
2017-01-13T07:04:37.462Z,0
2017-01-13T07:05:17.945Z,0
2017-01-13T07:05:58.590Z,0
2017-01-13T07:06:39.891Z,0
2017-01-13T07:07:20.383Z,0
2017-01-13T07:08:00.846Z,0
2017-01-13T07:08:41.313Z,0
2017-01-13T07:09:21.824Z,0
2017-01-13T07:10:02.288Z,0
2017-01-13T07:10:42.742Z,0
2017-01-13T07:11:23.241Z,0
2017-01-13T07:12:03.660Z,0
2017-01-13T07:12:44.188Z,0
2017-01-13T07:13:24.634Z,0
2017-01-13T07:14:05.123Z,0
2017-01-13T07:14:45.622Z,0
2017-01-13T07:15:26.072Z,0
2017-01-13T07:16:06.567Z,0
2017-01-13T07:16:47.060Z,0
2017-01-13T07:17:27.498Z,0
2017-01-13T07:18:07.930Z,0
2017-01-13T07:18:48.405Z,0
2017-01-13T07:21:24.140Z,0
2017-01-13T07:22:04.351Z,0
2017-01-13T07:22:44.873Z,0
2017-01-13T07:23:25.322Z,0
2017-01-13T07:24:05.768Z,0
2017-01-13T07:24:46.316Z,0
2017-01-13T07:25:26.751Z,0
2017-01-13T07:26:07.310Z,0
2017-01-13T07:26:47.863Z,0
2017-01-13T07:27:28.332Z,0
2017-01-13T07:28:08.766Z,0
2017-01-13T07:28:49.248Z,0
2017-01-13T07:29:29.740Z,0
2017-01-13T07:30:10.216Z,0
2017-01-13T07:30:50.708Z,0
2017-01-13T07:31:31.150Z,0
2017-01-13T07:32:11.634Z,0
2017-01-13T07:32:52.159Z,0
2017-01-13T07:33:32.600Z,0
2017-01-13T07:34:13.064Z,5
2017-01-13T07:34:53.658Z,5
2017-01-13T07:35:34.296Z,5
2017-01-13T07:36:15.479Z,5
2017-01-13T07:36:56.141Z,5
2017-01-13T07:37:36.680Z,5
2017-01-13T07:38:17.215Z,5
2017-01-13T07:38:58.205Z,5
2017-01-13T07:39:38.751Z,5
2017-01-13T07:40:19.264Z,5
2017-01-13T07:40:59.719Z,5
2017-01-13T07:41:40.528Z,5
2017-01-13T07:42:20.986Z,5
2017-01-13T07:43:01.480Z,5
2017-01-13T07:43:41.970Z,5
2017-01-13T07:44:22.451Z,10
2017-01-13T07:45:02.936Z,10
2017-01-13T07:45:43.926Z,10
2017-01-13T07:46:24.412Z,10
2017-01-13T07:47:04.875Z,10
2017-01-13T07:47:45.366Z,10
2017-01-13T07:48:25.835Z,10
2017-01-13T07:49:06.326Z,10
2017-01-13T07:49:46.767Z,10
2017-01-13T07:50:27.276Z,10
2017-01-13T07:51:07.766Z,15
2017-01-13T07:51:48.810Z,15
2017-01-13T07:52:29.338Z,15
2017-01-13T07:53:09.835Z,15
2017-01-13T07:53:50.549Z,15
2017-01-13T07:54:30.780Z,15
2017-01-13T07:55:11.346Z,15
2017-01-13T07:55:52.027Z,15
2017-01-13T07:56:32.451Z,15
2017-01-13T07:57:13.019Z,15
2017-01-13T07:57:53.529Z,15
2017-01-13T07:58:34.033Z,20
2017-01-13T07:59:14.501Z,20
2017-01-13T07:59:54.986Z,20
2017-01-13T08:00:35.501Z,20
2017-01-13T08:01:15.961Z,20
2017-01-13T08:01:56.448Z,20
2017-01-13T08:02:36.893Z,20
2017-01-13T08:03:17.393Z,20
2017-01-13T08:03:57.970Z,25
2017-01-13T08:04:38.479Z,25
2017-01-13T08:05:18.921Z,25
2017-01-13T08:05:59.386Z,25
2017-01-13T08:06:41.701Z,25
2017-01-13T08:07:22.184Z,25
2017-01-13T08:08:02.636Z,25
2017-01-13T08:08:43.132Z,25
2017-01-13T08:09:23.601Z,25
2017-01-13T08:10:04.109Z,25
2017-01-13T08:10:44.581Z,25
2017-01-13T08:11:25.053Z,25
2017-01-13T08:12:05.568Z,25
2017-01-13T08:12:46.074Z,30
2017-01-13T08:13:26.571Z,25
2017-01-13T08:14:07.059Z,25
2017-01-13T08:14:47.556Z,25
2017-01-13T08:15:28.048Z,30
2017-01-13T08:16:08.484Z,30
2017-01-13T08:16:48.983Z,30
2017-01-13T08:17:31.535Z,30
2017-01-13T08:18:11.955Z,30
2017-01-13T08:18:53.153Z,30
2017-01-13T08:21:23.040Z,35
2017-01-13T08:22:06.775Z,35
2017-01-13T08:22:47.228Z,35
2017-01-13T08:23:27.704Z,40
2017-01-13T08:24:08.197Z,40
2017-01-13T08:24:48.660Z,40
2017-01-13T08:25:29.259Z,40
2017-01-13T08:26:09.700Z,40
2017-01-13T08:26:50.210Z,45
2017-01-13T08:27:30.710Z,45
2017-01-13T08:28:11.136Z,45
2017-01-13T08:28:51.612Z,45
2017-01-13T08:29:32.112Z,45
2017-01-13T08:30:12.572Z,50
2017-01-13T08:30:53.037Z,50
2017-01-13T08:31:33.589Z,50
2017-01-13T08:32:14.086Z,50
2017-01-13T08:32:54.567Z,50
2017-01-13T08:33:35.066Z,55
2017-01-13T08:34:15.566Z,55
2017-01-13T08:34:56.038Z,55
2017-01-13T08:35:36.560Z,55
2017-01-13T08:36:17.025Z,55
2017-01-13T08:36:57.481Z,60
2017-01-13T08:37:37.975Z,60
2017-01-13T08:38:18.471Z,60
2017-01-13T08:38:58.964Z,60
2017-01-13T08:39:39.468Z,60
2017-01-13T08:40:19.940Z,60
2017-01-13T08:41:00.452Z,65
2017-01-13T08:41:40.932Z,65
2017-01-13T08:42:21.438Z,65
2017-01-13T08:43:01.910Z,65
2017-01-13T08:43:42.394Z,65
2017-01-13T08:44:22.859Z,65
2017-01-13T08:45:03.364Z,65
2017-01-13T08:45:45.327Z,65
2017-01-13T08:46:25.524Z,65
2017-01-13T08:47:06.014Z,65
2017-01-13T08:47:46.480Z,65
2017-01-13T08:48:26.957Z,65
2017-01-13T08:49:07.429Z,65
2017-01-13T08:49:47.900Z,65
2017-01-13T08:50:28.423Z,65
2017-01-13T08:51:08.953Z,65
2017-01-13T08:51:49.620Z,65
2017-01-13T08:52:30.432Z,65
2017-01-13T08:53:10.909Z,65
2017-01-13T08:53:51.615Z,65
2017-01-13T08:54:34.782Z,65
2017-01-13T08:55:15.242Z,65
2017-01-13T08:55:55.722Z,65
2017-01-13T08:56:36.328Z,65
2017-01-13T08:57:16.849Z,65
2017-01-13T08:57:57.327Z,65
2017-01-13T08:58:37.873Z,65
2017-01-13T08:59:18.404Z,65
2017-01-13T09:00:04.315Z,65
2017-01-13T09:00:44.821Z,65
2017-01-13T09:03:40.756Z,65
2017-01-13T09:04:23.397Z,65
2017-01-13T09:05:03.906Z,65
2017-01-13T09:05:44.364Z,65
2017-01-13T09:06:24.894Z,65
2017-01-13T09:07:05.371Z,65
2017-01-13T09:07:46.407Z,65
2017-01-13T09:08:26.839Z,65
2017-01-13T09:09:07.373Z,65
2017-01-13T09:09:47.812Z,65
2017-01-13T09:10:28.321Z,65
2017-01-13T09:11:09.418Z,65
2017-01-13T09:11:49.852Z,65
2017-01-13T09:12:30.352Z,65
2017-01-13T09:13:10.911Z,65
2017-01-13T09:13:51.385Z,70
2017-01-13T09:14:31.933Z,70
2017-01-13T09:15:12.445Z,70
2017-01-13T09:15:52.909Z,70
2017-01-13T09:16:33.462Z,70
2017-01-13T09:19:15.073Z,70
2017-01-13T09:21:51.446Z,70
2017-01-13T09:22:33.119Z,70
2017-01-13T09:23:13.734Z,70
2017-01-13T09:23:54.193Z,70
2017-01-13T09:24:34.648Z,75
2017-01-13T09:25:15.170Z,75
2017-01-13T09:25:55.722Z,75
2017-01-13T09:26:36.397Z,75
2017-01-13T09:27:16.976Z,80
2017-01-13T09:27:57.502Z,80
2017-01-13T09:28:38.046Z,80
2017-01-13T09:29:18.473Z,85
2017-01-13T09:29:59.067Z,85
2017-01-13T09:30:40.305Z,85
2017-01-13T09:31:20.662Z,85
2017-01-13T09:32:01.152Z,85
2017-01-13T09:32:41.684Z,85
2017-01-13T09:33:22.158Z,85
2017-01-13T09:34:02.664Z,85
2017-01-13T09:34:43.206Z,85
2017-01-13T09:35:23.690Z,85
2017-01-13T09:36:04.200Z,85
2017-01-13T09:36:44.658Z,85
2017-01-13T09:37:25.161Z,85
2017-01-13T09:38:05.706Z,90
2017-01-13T09:38:46.289Z,90
2017-01-13T09:39:26.958Z,90
2017-01-13T09:40:07.436Z,90
2017-01-13T09:40:48.001Z,90
2017-01-13T09:41:28.457Z,90
2017-01-13T09:42:09.000Z,90
2017-01-13T09:42:49.505Z,90
2017-01-13T09:43:30.066Z,95
2017-01-13T09:44:10.560Z,95
2017-01-13T09:44:51.077Z,95
2017-01-13T09:45:31.648Z,100
2017-01-13T09:46:12.173Z,100
2017-01-13T09:46:52.619Z,100
2017-01-13T09:47:33.240Z,100
2017-01-13T09:48:13.655Z,100
2017-01-13T09:48:54.238Z,95
2017-01-13T09:49:34.708Z,100
2017-01-13T09:50:15.137Z,100
2017-01-13T09:50:55.566Z,100
2017-01-13T09:51:36.568Z,100
2017-01-13T09:52:17.208Z,100
2017-01-13T09:52:57.645Z,100
2017-01-13T09:53:38.154Z,105
2017-01-13T09:54:18.561Z,105
2017-01-13T09:54:59.062Z,100
2017-01-13T09:55:39.591Z,105
2017-01-13T09:56:20.013Z,105
2017-01-13T09:57:00.518Z,105
2017-01-13T09:57:40.987Z,105
2017-01-13T09:58:21.476Z,105
2017-01-13T09:59:01.924Z,105
2017-01-13T09:59:42.483Z,110
2017-01-13T10:00:22.953Z,110
2017-01-13T10:01:03.409Z,105
2017-01-13T10:01:43.844Z,105
2017-01-13T10:02:24.352Z,105
2017-01-13T10:03:04.799Z,110
2017-01-13T10:03:45.275Z,105
2017-01-13T10:04:25.755Z,105
2017-01-13T10:05:06.272Z,105
2017-01-13T10:05:48.287Z,105
2017-01-13T10:06:29.433Z,110
2017-01-13T10:07:11.075Z,110
2017-01-13T10:07:51.532Z,110
2017-01-13T10:08:32.027Z,110
2017-01-13T10:09:12.491Z,110
2017-01-13T10:09:52.966Z,110
2017-01-13T10:10:33.429Z,110
2017-01-13T10:11:14.227Z,110
2017-01-13T10:11:54.756Z,110
2017-01-13T10:12:35.271Z,110
2017-01-13T10:13:15.725Z,110
2017-01-13T10:13:56.303Z,115
2017-01-13T10:14:36.756Z,115
2017-01-13T10:15:17.212Z,115
2017-01-13T10:15:57.776Z,115
2017-01-13T10:16:38.254Z,115
2017-01-13T10:17:18.736Z,110
2017-01-13T10:17:59.282Z,110
2017-01-13T10:18:40.003Z,110
2017-01-13T10:19:20.481Z,110
2017-01-13T10:20:00.966Z,110